Time;durP1;ratioP1;P1;durP2;ratioP2;P2;SDS_P1;SDS_P2;PMS_P1;PMS_P2;Temp;Humidity;BMP_temperature;BMP_pressure;BME280_temperature;BME280_humidity;BME280_pressure;Samples;Min_cycle;Max_cycle;Signal;HPM_P1;HPM_P2
2023/01/15 00:07:44;;;;;;;0.75;0.75;;;;;;;6.77;68.86;100901.87;18415903;32;20461;-57
2023/01/15 00:17:49;;;;;;;1.37;1.08;;;;;;;6.72;69.20;100895.69;18415520;32;20122;-56
2023/01/15 00:27:56;;;;;;;1.15;1.15;;;;;;;6.63;69.44;100888.59;18414557;32;20744;-57
2023/01/15 00:38:02;;;;;;;1.00;1.00;;;;;;;5.66;71.94;100884.56;18415978;32;20453;-57
2023/01/15 00:48:08;;;;;;;1.37;1.35;;;;;;;6.30;69.46;100884.37;18413837;32;20406;-56
2023/01/15 00:58:13;;;;;;;1.50;1.40;;;;;;;5.63;70.85;100876.69;18413638;32;20467;-57
2023/01/15 01:08:19;;;;;;;2.62;2.42;;;;;;;6.21;69.50;100871.22;18412784;32;20077;-57
2023/01/15 01:18:22;;;;;;;1.65;1.60;;;;;;;6.05;69.20;100859.63;18412822;32;20141;-57
2023/01/15 01:28:26;;;;;;;0.90;0.90;;;;;;;6.03;69.81;100861.28;18412350;32;20137;-57
2023/01/15 01:38:29;;;;;;;0.80;0.80;;;;;;;6.26;68.80;100846.28;18419555;32;20196;-57
2023/01/15 01:48:34;;;;;;;1.85;1.75;;;;;;;6.19;69.10;100832.31;18421918;32;20101;-57
2023/01/15 01:58:38;;;;;;;2.08;1.73;;;;;;;6.13;68.84;100823.53;18420940;31;20097;-57
2023/01/15 02:08:42;;;;;;;2.95;1.95;;;;;;;6.40;67.87;100807.69;18420918;32;20116;-57
2023/01/15 02:18:51;;;;;;;1.45;1.35;;;;;;;6.19;68.62;100808.09;18420800;32;20675;-57
2023/01/15 02:28:57;;;;;;;0.70;0.70;;;;;;;6.44;68.28;100795.66;18419895;32;20093;-57
2023/01/15 02:39:04;;;;;;;0.60;0.60;;;;;;;6.06;68.85;100776.72;18419788;32;20104;-57
2023/01/15 02:49:11;;;;;;;1.30;1.27;;;;;;;5.69;70.33;100762.87;18418442;32;20108;-56
2023/01/15 02:59:22;;;;;;;1.67;1.52;;;;;;;5.68;70.46;100755.94;18418778;31;20097;-56
2023/01/15 03:09:27;;;;;;;1.52;1.48;;;;;;;5.91;69.73;100753.00;18418814;32;20085;-56
2023/01/15 03:19:38;;;;;;;0.70;0.70;;;;;;;5.97;68.58;100740.19;18419161;32;20096;-57
2023/01/15 03:29:44;;;;;;;;;;;;;;;5.30;71.94;100741.22;18418128;32;20187;-56
2023/01/15 03:39:47;;;;;;;1.02;0.90;;;;;;;5.39;71.33;100744.03;18417920;32;20432;-56
2023/01/15 03:49:57;;;;;;;0.60;0.60;;;;;;;5.86;69.69;100729.56;18416479;32;20361;-57
2023/01/15 04:00:04;;;;;;;1.10;1.10;;;;;;;5.92;69.29;100729.72;18415654;31;20103;-56
2023/01/15 04:10:11;;;;;;;2.17;1.98;;;;;;;6.29;67.59;100728.81;18416159;32;20111;-56
2023/01/15 04:20:16;;;;;;;1.60;1.52;;;;;;;6.22;67.97;100723.47;18415205;32;20475;-57
2023/01/15 04:30:22;;;;;;;0.80;0.80;;;;;;;6.18;67.29;100713.00;18415190;32;20488;-57
2023/01/15 04:50:48;;;;;;;1.33;1.33;;;;;;;5.50;69.32;100707.16;18413825;32;20127;-57
2023/01/15 05:00:51;;;;;;;0.70;0.70;;;;;;;5.79;68.82;100697.47;18413487;31;20092;-57
2023/01/15 05:10:56;;;;;;;0.50;0.50;;;;;;;5.90;68.50;100694.25;18417590;32;20115;-57
2023/01/15 05:20:59;;;;;;;0.75;0.75;;;;;;;6.13;68.20;100681.81;18422740;32;20115;-56
2023/01/15 05:31:09;;;;;;;0.75;0.75;;;;;;;6.23;67.49;100681.16;18422418;32;20111;-56
2023/01/15 05:51:36;;;;;;;1.87;1.35;;;;;;;6.38;66.52;100646.00;18421884;32;20096;-57
2023/01/15 06:01:39;;;;;;;0.80;0.80;;;;;;;6.00;67.79;100625.38;18422168;32;20145;-57
2023/01/15 06:11:44;;;;;;;0.50;0.50;;;;;;;6.09;67.35;100618.66;18420775;32;20468;-57
2023/01/15 06:21:47;;;;;;;0.73;0.68;;;;;;;6.21;67.50;100620.63;18420554;32;20182;-57
2023/01/15 06:31:52;;;;;;;1.23;1.17;;;;;;;6.28;67.46;100628.53;18395435;32;20140;-57
2023/01/15 06:52:17;;;;;;;0.95;0.95;;;;;;;5.88;68.80;100608.72;18387890;32;20105;-56
2023/01/15 07:02:21;;;;;;;0.55;0.55;;;;;;;6.50;66.93;100604.72;18392402;32;20136;-60
2023/01/15 07:12:26;;;;;;;0.60;0.60;;;;;;;6.68;66.94;100607.59;18367368;32;20108;-60
2023/01/15 07:22:29;;;;;;;0.93;0.88;;;;;;;6.73;67.16;100614.62;18366475;31;20623;-59
2023/01/15 07:32:33;;;;;;;0.60;0.60;;;;;;;6.76;66.97;100606.91;18380337;32;20108;-57
2023/01/15 07:52:59;;;;;;;0.77;0.77;;;;;;;7.09;66.47;100591.84;18373488;32;20114;-57
2023/01/15 08:03:02;;;;;;;0.68;0.68;;;;;;;7.03;66.87;100589.16;18360793;31;20191;-57
2023/01/15 08:23:35;;;;;;;0.70;0.70;;;;;;;7.22;66.58;100564.34;18180967;32;20106;-57
2023/01/15 08:33:39;;;;;;;3.37;0.95;;;;;;;7.53;66.38;100572.56;18203154;32;20122;-58
2023/01/15 08:43:44;;;;;;;0.85;0.85;;;;;;;7.44;66.68;100560.31;18204216;32;20129;-57
2023/01/15 08:53:49;;;;;;;1.48;1.30;;;;;;;7.69;66.18;100559.78;18249308;32;20689;-58
2023/01/15 09:03:52;;;;;;;0.40;0.40;;;;;;;7.82;67.94;100558.16;18421303;32;20086;-57
2023/01/15 09:13:56;;;;;;;1.25;1.25;;;;;;;7.68;66.12;100539.81;18408957;32;20085;-57
2023/01/15 09:23:59;;;;;;;1.65;1.55;;;;;;;7.80;66.90;100537.38;18415031;32;20085;-57
2023/01/15 09:34:04;;;;;;;21.12;13.50;;;;;;;7.72;66.91;100513.03;18423552;32;20441;-57
2023/01/15 09:44:20;;;;;;;3.10;2.75;;;;;;;8.18;65.75;100486.62;18425546;32;20433;-58
2023/01/15 09:54:33;;;;;;;2.60;2.50;;;;;;;8.32;66.04;100476.34;18424858;32;20084;-59
2023/01/15 10:04:41;;;;;;;1.77;1.50;;;;;;;8.21;65.43;100439.84;18424527;32;20101;-59
2023/01/15 10:14:50;;;;;;;2.75;2.55;;;;;;;8.85;63.31;100424.69;18424872;32;20125;-59
2023/01/15 10:24:56;;;;;;;1.42;1.33;;;;;;;8.64;64.03;100405.50;18424004;32;20121;-59
2023/01/15 10:35:09;;;;;;;1.85;1.58;;;;;;;8.67;63.88;100387.28;18423377;32;20157;-59
2023/01/15 10:45:14;;;;;;;1.35;1.35;;;;;;;8.47;64.26;100359.37;18423462;32;20108;-58
2023/01/15 10:55:22;;;;;;;0.47;0.47;;;;;;;9.27;62.25;100342.37;18423003;32;20113;-59
2023/01/15 11:05:26;;;;;;;1.70;1.60;;;;;;;9.13;61.55;100331.06;18421371;32;20149;-59
2023/01/15 11:25:53;;;;;;;1.73;1.62;;;;;;;9.14;62.92;100298.94;18420254;32;20091;-60
2023/01/15 11:54:03;;;;;;;2.15;1.60;;;;;;;10.41;57.94;100235.38;18541640;32;20104;-60
2023/01/15 12:04:24;;;;;;;2.58;1.17;;;;;;;9.78;58.63;100210.34;18541304;32;20092;-60
2023/01/15 12:14:50;;;;;;;1.87;1.77;;;;;;;9.19;61.05;100187.81;18540835;32;20120;-60
2023/01/15 12:25:11;;;;;;;1.00;1.00;;;;;;;10.01;57.95;100192.03;18530924;32;20445;-60
2023/01/15 12:35:18;;;;;;;1.15;1.05;;;;;;;9.74;58.52;100183.41;18537848;32;20165;-59
2023/01/15 12:45:25;;;;;;;1.00;1.00;;;;;;;9.38;59.25;100175.66;18539870;32;20111;-60
2023/01/15 12:55:30;;;;;;;0.60;0.60;;;;;;;9.28;59.38;100176.53;18492930;32;20096;-60
2023/01/15 13:05:39;;;;;;;0.93;0.75;;;;;;;9.73;58.51;100162.59;18491464;32;20197;-60
2023/01/15 13:16:07;;;;;;;0.60;0.60;;;;;;;9.74;59.01;100139.09;18492781;32;20096;-60
2023/01/15 13:26:37;;;;;;;1.08;0.95;;;;;;;10.14;58.41;100138.94;18492257;32;20400;-60
2023/01/15 13:36:42;;;;;;;1.55;1.23;;;;;;;9.46;60.37;100136.56;18490209;32;20118;-60
2023/01/15 13:46:59;;;;;;;2.33;1.87;;;;;;;9.91;58.83;100115.59;18493044;32;20080;-60
2023/01/15 13:57:09;;;;;;;0.80;0.80;;;;;;;9.53;60.29;100109.62;18494017;32;20131;-60
2023/01/15 14:07:22;;;;;;;0.73;0.73;;;;;;;10.05;58.83;100092.03;18492798;32;20106;-60
2023/01/15 14:17:55;;;;;;;0.88;0.88;;;;;;;9.91;59.93;100086.03;18494795;32;20105;-60
2023/01/15 14:28:12;;;;;;;2.95;1.65;;;;;;;10.05;59.43;100081.59;18494527;32;20405;-60
2023/01/15 14:38:17;;;;;;;0.60;0.60;;;;;;;9.68;60.91;100094.84;18494167;32;20105;-60
2023/01/15 14:48:37;;;;;;;0.80;0.80;;;;;;;10.45;59.30;100071.88;18485859;32;20085;-60
2023/01/15 14:58:47;;;;;;;0.60;0.60;;;;;;;10.59;59.15;100066.53;18485609;32;20097;-60
2023/01/15 15:08:52;;;;;;;0.90;0.90;;;;;;;10.69;58.99;100066.44;18488906;32;20453;-60
2023/01/15 15:19:00;;;;;;;1.20;1.10;;;;;;;10.47;59.82;100064.88;18487682;32;20129;-60
2023/01/15 15:29:07;;;;;;;0.98;0.98;;;;;;;10.10;61.24;100039.84;18489497;32;20385;-61
2023/01/15 15:39:19;;;;;;;1.45;0.85;;;;;;;10.18;61.30;100021.56;18490424;32;20111;-59
2023/01/15 15:49:23;;;;;;;3.25;2.95;;;;;;;10.12;61.54;100017.25;18491785;32;20089;-60
2023/01/15 15:59:32;;;;;;;1.25;1.25;;;;;;;10.12;61.67;100014.66;18489418;32;20141;-62
2023/01/15 16:09:36;;;;;;;2.58;1.02;;;;;;;10.05;62.11;100011.19;18488477;32;20085;-60
2023/01/15 16:19:40;;;;;;;0.80;0.80;;;;;;;10.06;62.13;100009.47;18488219;32;20109;-60
2023/01/15 16:29:48;;;;;;;8.32;2.75;;;;;;;10.04;62.13;100006.84;18495102;32;20096;-60
2023/01/15 16:39:52;;;;;;;1.20;1.10;;;;;;;10.08;62.04;100011.19;18494436;32;20158;-60
2023/01/15 16:50:30;;;;;;;3.70;2.62;;;;;;;9.99;62.39;100019.06;18464172;32;20078;-60
2023/01/15 17:00:34;;;;;;;1.87;1.52;;;;;;;9.98;62.52;100014.75;18448493;32;20093;-60
2023/01/15 17:10:39;;;;;;;1.55;1.45;;;;;;;9.84;63.34;100004.38;18460926;32;20146;-60
2023/01/15 17:20:43;;;;;;;1.87;1.15;;;;;;;9.75;64.21;99992.25;18494830;32;20148;-60
2023/01/15 17:30:51;;;;;;;3.60;3.30;;;;;;;9.80;64.53;99995.72;18495741;32;20166;-60
2023/01/15 17:40:56;;;;;;;3.15;2.95;;;;;;;9.67;65.40;99983.59;18493851;32;20096;-60
2023/01/15 17:51:02;;;;;;;30.98;16.25;;;;;;;9.63;65.96;99994.94;18490889;32;20416;-60
2023/01/15 18:11:36;;;;;;;1.52;1.42;;;;;;;9.62;66.24;99994.06;18493578;32;20164;-60
2023/01/15 18:21:40;;;;;;;0.70;0.70;;;;;;;9.51;66.82;99985.44;18490087;32;20093;-60
2023/01/15 18:31:46;;;;;;;12.65;2.25;;;;;;;9.48;66.98;99975.88;18493877;32;20089;-60
2023/01/15 19:02:49;;;;;;;0.90;0.90;;;;;;;9.34;67.83;99982.91;18336889;32;20109;-60
2023/01/15 19:12:53;;;;;;;0.75;0.75;;;;;;;9.36;67.76;99999.38;18297253;32;20124;-60
2023/01/15 19:23:00;;;;;;;3.90;3.40;;;;;;;9.19;68.55;99984.66;18321260;32;20121;-60
2023/01/15 19:33:10;;;;;;;14.10;3.90;;;;;;;9.17;68.87;99983.81;18417632;32;20108;-60
2023/01/15 19:53:36;;;;;;;1.20;1.20;;;;;;;9.09;69.57;99965.63;18492446;32;20399;-60
2023/01/15 20:03:39;;;;;;;2.20;2.10;;;;;;;9.15;69.21;99954.31;18500128;32;20092;-59
2023/01/15 20:13:52;;;;;;;1.80;1.70;;;;;;;9.35;68.19;99969.00;18502618;32;20212;-60
2023/01/15 20:23:55;;;;;;;2.15;2.05;;;;;;;9.28;68.42;99962.94;18502167;32;20088;-59
2023/01/15 20:34:00;;;;;;;8.98;2.70;;;;;;;9.21;68.91;99959.50;18497985;32;20084;-60
2023/01/15 20:54:36;;;;;;;2.40;1.23;;;;;;;9.13;68.87;99967.34;18355415;32;20117;-60
2023/01/15 21:04:40;;;;;;;7.18;5.00;;;;;;;9.09;68.87;99983.84;18358605;32;20131;-60
2023/01/15 21:14:44;;;;;;;3.90;2.55;;;;;;;9.08;69.00;99976.03;18359431;32;20160;-60
2023/01/15 21:24:48;;;;;;;1.35;1.25;;;;;;;9.04;68.91;99975.16;18403611;32;20093;-60
2023/01/15 21:34:54;;;;;;;7.47;3.20;;;;;;;9.04;69.11;99961.31;18498975;32;20108;-60
2023/01/15 21:44:58;;;;;;;3.60;1.83;;;;;;;8.90;69.19;99969.16;18499032;32;20092;-60
2023/01/15 21:55:02;;;;;;;2.30;1.60;;;;;;;8.95;68.67;99970.87;18497010;32;20093;-60
2023/01/15 22:05:07;;;;;;;2.85;1.27;;;;;;;8.76;69.63;99951.81;18491616;32;20124;-60
2023/01/15 22:15:14;;;;;;;10.25;3.15;;;;;;;8.82;68.98;99950.91;18494029;32;20106;-59
2023/01/15 22:25:17;;;;;;;3.17;1.85;;;;;;;8.78;68.76;99928.38;18496762;32;20108;-60
2023/01/15 22:35:23;;;;;;;3.75;3.55;;;;;;;8.74;68.52;99936.22;18497076;32;20115;-59
2023/01/15 22:45:27;;;;;;;3.62;2.10;;;;;;;8.61;68.31;99924.06;18496823;32;20116;-59
2023/01/15 22:55:31;;;;;;;2.20;2.00;;;;;;;8.52;68.51;99913.69;18496572;32;20114;-60
2023/01/15 23:05:37;;;;;;;1.52;1.42;;;;;;;8.41;68.54;99927.53;18496509;32;20396;-59
2023/01/15 23:15:42;;;;;;;1.95;1.33;;;;;;;7.92;70.01;99923.22;18496783;32;20722;-59
2023/01/15 23:25:45;;;;;;;1.20;1.10;;;;;;;8.24;67.79;99929.28;18495435;32;20142;-60
2023/01/15 23:35:50;;;;;;;5.47;5.15;;;;;;;8.08;68.42;99926.69;18494343;32;20448;-59
2023/01/15 23:56:15;;;;;;;2.10;2.00;;;;;;;8.07;68.30;99875.56;18493908;32;20106;-60
